Detall de PIREP

Printer-friendly versionPDF version

[2014/10/15 07:16:00]
Flight IATA:CT3222
Pilot Number:042
Company ICAO:CAT
Aircraft Type:B463/A
PAX:32
Aircraft Registration:PAX
Departing Airport: LPPT
Destination Airport: LEPA
Alternate Airport:LEMH
Online: VATSIM
Route:IDBID DCT UREDI UN870 DIPOL UM871 PDT UM871 GODOX
Flight Level:F330
No Slew and time accel
No pause
Crash detect
Detect pilot in Cockpit between each 30 and 45 minutes
07:16 Zero fuel Weight: 80445 Lbs, Fuel Weight: 22757 Lbs
07:16 VATSIM:LPPT 150600Z 24009KT 7000 SCT003 BKN012 20/19 Q1012
07:16 VATSIM:LEPA 150600Z 00000KT 9999 FEW018 13/13 Q1010 NOSIG
07:28 Parking Brakes off
07:35 Take-off
07:35 Take off Weight: 102188 Lbs
07:35 Wind: 240º @ 009 Knots Heading: 205º
07:35 POS N38º 46´ 54´´ W009º 08´ 08´´
07:35 Flaps:2 at 156 Knots
07:35 Gear Up: 156 Knots
07:37 Flaps:1 at 158 Knots
07:39 Flaps:0 at 187 Knots
07:50 Wind:280º@048 Knots Heading: 059º Ground Speed: 397 Knots Altitude 26200 ft
07:57 TOC
07:57 Fuel Weight: 18328 Lb
08:05 Wind:278º@060 Knots Heading: 062º Ground Speed: 459 Knots Altitude 32979 ft
08:20 Wind:294º@058 Knots Heading: 100º Ground Speed: 469 Knots Altitude 33051 ft
08:35 Wind:329º@052 Knots Heading: 128º Ground Speed: 461 Knots Altitude 32998 ft
08:45 TOD
08:45 Fuel Weight: 15197 Lb
08:50 Wind:350º@028 Knots Heading: 081º Ground Speed: 326 Knots Altitude 23959 ft
09:03 Flaps:1 at 197 Knots
09:05 Wind:313º@014 Knots Heading: 114º Ground Speed: 211 Knots Altitude 3047 ft
09:05 Flaps:2 at 185 Knots
09:06 Gear Down: 179 Knots
09:06 Flaps:3 at 180 Knots
09:06 Flaps:4 at 171 Knots
09:10 TouchDown:Rate -123 ft/min Speed: 115 Knots
09:10 VATSIM:LEPA 150800Z 00000KT 9999 FEW018 18/15 Q1011 NOSIG
09:10 Land
09:10 Wind:313º@000 Knots
09:10 Heading: 058º
09:10 Flight Duration: 01:35
09:10 Landing Weight: 94772 Lbs
09:10 POS N39º 33´ 18´´ E002º 43´ 38´´
09:13 Parking brakes on
09:13 Block to Block Duration: 01:45
09:13 Final Fuel: 14010 Lbls
09:13 Spent Fuel: 8747 Lbls
09:13 Flight Length: 601 NM
09:13 TOD Land Length: 109 NM

Exportar CSV

Powered by Drupal - Modified by Danger4k